createdAt,value
2022-09-03T00:00:07.485Z,13.72
2022-09-03T00:02:28.733Z,13.62
2022-09-03T00:04:41.219Z,13.69
2022-09-03T00:06:49.801Z,13.84
2022-09-03T00:08:55.231Z,13.90
2022-09-03T00:11:07.814Z,13.92
2022-09-03T00:13:10.615Z,13.90
2022-09-03T00:15:15.402Z,13.86
2022-09-03T00:17:39.769Z,13.81
2022-09-03T00:19:48.922Z,13.70
2022-09-03T00:22:13.509Z,13.58
2022-09-03T00:24:17.820Z,13.43
2022-09-03T00:26:25.749Z,13.35
2022-09-03T00:28:35.614Z,13.34
2022-09-03T00:30:37.254Z,13.41
2022-09-03T00:32:47.446Z,13.50
2022-09-03T00:34:52.053Z,13.54
2022-09-03T00:36:55.494Z,13.53
2022-09-03T00:38:58.461Z,13.41
2022-09-03T00:41:06.864Z,13.28
2022-09-03T00:43:13.637Z,13.22
2022-09-03T00:45:34.902Z,13.19
2022-09-03T00:47:55.377Z,13.15
2022-09-03T00:50:15.558Z,13.12
2022-09-03T00:52:35.916Z,13.12
2022-09-03T00:54:56.829Z,13.09
2022-09-03T00:57:01.028Z,13.11
2022-09-03T00:59:24.313Z,13.16
2022-09-03T01:01:30.526Z,13.17
2022-09-03T01:03:51.325Z,13.16
2022-09-03T01:06:01.871Z,13.15
2022-09-03T01:08:19.055Z,13.15
2022-09-03T01:10:32.353Z,13.09
2022-09-03T01:12:37.987Z,13.00
2022-09-03T01:14:52.179Z,12.93
2022-09-03T01:16:59.727Z,12.82
2022-09-03T01:19:22.541Z,12.76
2022-09-03T01:21:24.722Z,12.75
2022-09-03T01:23:39.996Z,12.81
2022-09-03T01:26:30.146Z,12.93
2022-09-03T01:29:07.564Z,12.90
2022-09-03T01:32:02.879Z,12.76
2022-09-03T01:34:50.411Z,12.67
2022-09-03T01:37:17.845Z,12.75
2022-09-03T01:39:45.844Z,12.87
2022-09-03T01:42:20.730Z,12.94
2022-09-03T01:44:53.694Z,12.94
2022-09-03T01:47:10.053Z,12.86
2022-09-03T01:49:29.069Z,12.73
2022-09-03T01:51:31.955Z,12.58
2022-09-03T01:54:04.534Z,12.44
2022-09-03T01:56:29.202Z,12.35
2022-09-03T01:58:36.336Z,12.44
2022-09-03T02:00:40.280Z,12.46
2022-09-03T02:02:44.450Z,12.42
2022-09-03T02:05:09.570Z,12.43
2022-09-03T02:07:11.281Z,12.47
2022-09-03T02:09:12.941Z,12.54
2022-09-03T02:11:14.961Z,12.64
2022-09-03T02:13:30.194Z,12.74
2022-09-03T02:15:34.650Z,12.86
2022-09-03T02:17:36.832Z,12.91
2022-09-03T02:19:38.373Z,12.91
2022-09-03T02:21:51.246Z,12.97
2022-09-03T02:23:53.167Z,13.16
2022-09-03T02:26:00.896Z,13.36
2022-09-03T02:28:05.449Z,13.42
2022-09-03T02:30:13.019Z,13.26
2022-09-03T02:32:16.393Z,13.09
2022-09-03T02:34:18.063Z,13.00
2022-09-03T02:36:27.449Z,12.99
2022-09-03T02:38:29.489Z,12.94
2022-09-03T02:40:31.141Z,12.88
2022-09-03T02:42:32.987Z,12.90
2022-09-03T02:44:39.794Z,13.02
2022-09-03T02:46:49.093Z,13.11
2022-09-03T02:48:50.720Z,13.16
2022-09-03T02:50:52.625Z,13.16
2022-09-03T02:52:54.395Z,13.23
2022-09-03T02:54:56.053Z,13.25
2022-09-03T02:56:57.689Z,13.24
2022-09-03T02:59:00.354Z,13.23
2022-09-03T03:01:02.118Z,13.22
2022-09-03T03:03:04.715Z,13.22
2022-09-03T03:05:10.110Z,13.21
2022-09-03T03:07:11.778Z,13.18
2022-09-03T03:09:14.429Z,13.15
2022-09-03T03:11:18.311Z,13.17
2022-09-03T03:13:20.158Z,13.20
2022-09-03T03:15:21.898Z,13.23
2022-09-03T03:17:23.617Z,13.27
2022-09-03T03:19:25.597Z,13.29
2022-09-03T03:21:27.682Z,13.34
2022-09-03T03:23:31.543Z,13.48
2022-09-03T03:25:37.069Z,13.64
2022-09-03T03:27:40.837Z,13.63
2022-09-03T03:29:42.550Z,13.60
2022-09-03T03:31:44.283Z,13.61
2022-09-03T03:33:52.161Z,13.63
2022-09-03T03:35:58.009Z,13.65
2022-09-03T03:38:00.372Z,13.65
2022-09-03T03:40:02.816Z,13.64
2022-09-03T03:42:04.666Z,13.65
2022-09-03T03:44:07.477Z,13.64
2022-09-03T03:46:10.506Z,13.63
2022-09-03T03:48:12.241Z,13.61
2022-09-03T03:50:14.098Z,13.57
2022-09-03T03:52:15.739Z,13.60
2022-09-03T03:54:17.605Z,13.67
2022-09-03T03:56:19.552Z,13.72
2022-09-03T03:58:21.286Z,13.75
2022-09-03T04:00:24.708Z,13.78
2022-09-03T04:02:26.633Z,13.86
2022-09-03T04:04:28.444Z,13.91
2022-09-03T04:06:30.184Z,13.94
2022-09-03T04:08:35.519Z,13.89
2022-09-03T04:10:37.257Z,13.88
2022-09-03T04:12:38.946Z,13.92
2022-09-03T04:14:40.877Z,13.98
2022-09-03T04:16:42.790Z,14.09
2022-09-03T04:18:44.828Z,14.13
2022-09-03T04:20:46.487Z,14.09
2022-09-03T04:22:51.841Z,14.03
2022-09-03T04:24:53.691Z,13.98
2022-09-03T04:26:55.417Z,13.95
2022-09-03T04:28:57.957Z,13.98
2022-09-03T04:31:07.884Z,14.07
2022-09-03T04:33:10.719Z,14.15
2022-09-03T04:35:18.205Z,14.21
2022-09-03T04:37:20.377Z,14.24
2022-09-03T04:39:21.941Z,14.27
2022-09-03T04:41:26.192Z,14.31
2022-09-03T04:43:28.765Z,14.34
2022-09-03T04:45:30.630Z,14.41
2022-09-03T04:47:32.678Z,14.39
2022-09-03T04:49:34.845Z,14.38
2022-09-03T04:51:38.473Z,14.39
2022-09-03T04:53:42.995Z,14.45
2022-09-03T04:55:44.833Z,14.48
2022-09-03T04:57:46.550Z,14.45
2022-09-03T04:59:48.276Z,14.44
2022-09-03T05:01:50.170Z,14.43
2022-09-03T05:03:54.632Z,14.42
2022-09-03T05:05:56.717Z,14.47
2022-09-03T05:07:58.702Z,14.50
2022-09-03T05:10:02.247Z,14.51
2022-09-03T05:12:04.113Z,14.54
2022-09-03T05:14:06.220Z,14.54
2022-09-03T05:16:11.028Z,14.53
2022-09-03T05:18:12.978Z,14.54
2022-09-03T05:20:15.138Z,14.56
2022-09-03T05:22:21.378Z,14.61
2022-09-03T05:24:23.025Z,14.64
2022-09-03T05:26:30.372Z,14.62
2022-09-03T05:28:32.164Z,14.67
2022-09-03T05:30:33.810Z,14.70
2022-09-03T05:32:35.578Z,14.79
2022-09-03T05:34:37.214Z,14.78
2022-09-03T05:36:39.011Z,14.77
2022-09-03T05:38:41.701Z,14.77
2022-09-03T05:40:43.240Z,14.77
2022-09-03T05:42:44.857Z,14.87
2022-09-03T05:44:46.497Z,14.96
2022-09-03T05:46:51.499Z,15.05
2022-09-03T05:48:53.185Z,15.12
2022-09-03T05:51:02.446Z,15.15
2022-09-03T05:53:04.057Z,15.13
2022-09-03T05:55:05.919Z,15.13
2022-09-03T05:57:07.622Z,15.15
2022-09-03T05:59:10.472Z,15.14
2022-09-03T06:01:18.118Z,15.12
2022-09-03T06:03:20.076Z,15.06
2022-09-03T06:05:21.886Z,15.06
2022-09-03T06:07:25.673Z,15.09
2022-09-03T06:09:27.353Z,15.11
2022-09-03T06:11:29.844Z,15.14
2022-09-03T06:13:33.090Z,15.21
2022-09-03T06:15:34.819Z,15.27
2022-09-03T06:17:38.417Z,15.23
2022-09-03T06:19:40.221Z,15.22
2022-09-03T06:21:43.794Z,15.28
2022-09-03T06:23:53.047Z,15.36
2022-09-03T06:26:09.312Z,15.43
2022-09-03T06:28:12.413Z,15.43
2022-09-03T06:30:14.151Z,15.45
2022-09-03T06:32:15.846Z,15.44
2022-09-03T06:34:18.798Z,15.45
2022-09-03T06:36:22.679Z,15.56
2022-09-03T06:38:25.685Z,15.67
2022-09-03T06:40:27.612Z,15.77
2022-09-03T06:42:29.863Z,15.84
2022-09-03T06:44:31.500Z,15.87
2022-09-03T06:46:35.311Z,15.88
2022-09-03T06:48:38.101Z,15.90
2022-09-03T06:50:39.746Z,15.93
2022-09-03T06:52:41.398Z,15.98
2022-09-03T06:54:43.045Z,16.00
2022-09-03T06:56:44.728Z,16.06
2022-09-03T06:58:48.751Z,16.10
2022-09-03T07:00:52.338Z,16.16
2022-09-03T07:02:59.126Z,16.23
2022-09-03T07:05:00.794Z,16.30
2022-09-03T07:07:02.734Z,16.37
2022-09-03T07:09:06.041Z,16.46
2022-09-03T07:11:13.493Z,16.51
2022-09-03T07:13:15.189Z,16.56
2022-09-03T07:15:17.088Z,16.59
2022-09-03T07:17:18.772Z,16.65
2022-09-03T07:19:20.501Z,16.78
2022-09-03T07:21:24.794Z,16.79
2022-09-03T07:23:26.538Z,16.80
2022-09-03T07:25:28.555Z,16.84
2022-09-03T07:27:30.349Z,16.87
2022-09-03T07:29:32.091Z,16.93
2022-09-03T07:31:36.375Z,17.00
2022-09-03T07:33:39.251Z,17.04
2022-09-03T07:35:40.908Z,17.07
2022-09-03T07:37:43.390Z,17.07
2022-09-03T07:39:46.815Z,17.06
2022-09-03T07:41:48.845Z,17.09
2022-09-03T07:43:50.487Z,17.20
2022-09-03T07:45:52.201Z,17.31
2022-09-03T07:47:54.316Z,17.38
2022-09-03T07:49:56.017Z,17.42
2022-09-03T07:51:57.704Z,17.51
2022-09-03T07:54:06.341Z,17.65
2022-09-03T07:56:10.417Z,17.74
2022-09-03T07:58:12.805Z,17.84
2022-09-03T08:00:15.326Z,17.97
2022-09-03T08:02:16.948Z,18.11
2022-09-03T08:04:18.648Z,18.20
2022-09-03T08:06:22.873Z,18.30
2022-09-03T08:08:24.655Z,18.48
2022-09-03T08:10:28.987Z,18.66
2022-09-03T08:12:32.939Z,18.78
2022-09-03T08:14:34.705Z,18.95
2022-09-03T08:16:49.292Z,19.15
2022-09-03T08:18:51.824Z,19.33
2022-09-03T08:20:53.578Z,19.41
2022-09-03T08:23:04.659Z,19.47
2022-09-03T08:25:06.804Z,19.58
2022-09-03T08:27:13.853Z,19.68
2022-09-03T08:29:16.237Z,19.78
2022-09-03T08:31:20.833Z,19.89
2022-09-03T08:33:37.826Z,19.97
2022-09-03T08:35:39.930Z,20.06
2022-09-03T08:37:41.621Z,20.12
2022-09-03T08:39:43.491Z,20.28
2022-09-03T08:41:51.102Z,20.44
2022-09-03T08:44:14.190Z,20.55
2022-09-03T08:46:16.788Z,20.59
